createdAt,value
2023-05-09T00:08:59.063Z,2.11321
2023-05-09T00:14:00.559Z,69.45825
2023-05-09T00:19:01.925Z,145.96721
2023-05-09T00:24:03.384Z,225.27854
2023-05-09T00:29:04.811Z,294
2023-05-09T00:34:06.212Z,344
2023-05-09T00:39:07.745Z,368.82759
2023-05-09T00:44:09.167Z,403.70149
2023-05-09T00:49:10.538Z,421.51938
2023-05-09T00:54:11.890Z,448.91803
2023-05-09T00:59:13.292Z,484.35088
2023-05-09T01:04:14.715Z,572.57143
2023-05-09T01:09:16.124Z,628.44444
2023-05-09T01:14:17.554Z,704.49383
2023-05-09T01:19:18.958Z,744
2023-05-09T01:24:20.384Z,787.83562
2023-05-09T01:29:21.754Z,811.60563
2023-05-09T01:34:23.125Z,906.5
2023-05-09T01:39:24.547Z,953.83607
2023-05-09T01:44:25.964Z,970.66667
2023-05-09T01:49:27.365Z,1006.06897
2023-05-09T01:54:28.760Z,921.77778
2023-05-09T01:59:30.284Z,849.88235
2023-05-09T02:04:31.649Z,787.83562
2023-05-09T02:09:33.026Z,787.83562
2023-05-09T02:14:34.444Z,863.40299
2023-05-09T02:19:35.935Z,849.88235
2023-05-09T02:24:37.332Z,787.83562
2023-05-09T02:29:38.719Z,776.43243
2023-05-09T02:34:40.160Z,744
2023-05-09T02:39:41.534Z,744
2023-05-09T02:44:42.968Z,787.83562
2023-05-09T02:49:44.481Z,836.75362
2023-05-09T02:54:45.893Z,849.88235
2023-05-09T02:59:47.291Z,937.54839
2023-05-09T03:04:48.668Z,836.75362
2023-05-09T03:09:50.075Z,863.40299
2023-05-09T03:14:51.472Z,849.88235
2023-05-09T03:19:52.853Z,824
2023-05-09T03:24:54.261Z,836.75362
2023-05-09T03:29:55.674Z,824
2023-05-09T03:34:57.096Z,836.75362
2023-05-09T03:39:58.509Z,836.75362
2023-05-09T03:44:59.923Z,836.75362
2023-05-09T03:50:01.270Z,863.40299
2023-05-09T03:55:02.668Z,921.77778
2023-05-09T04:00:04.063Z,891.69231
2023-05-09T04:05:05.449Z,891.69231
2023-05-09T04:10:06.866Z,553.90099
2023-05-09T04:15:08.276Z,723.74684
2023-05-09T04:20:09.683Z,811.60563
2023-05-09T04:25:11.139Z,836.75362
2023-05-09T04:30:12.611Z,811.60563
2023-05-09T04:35:14.402Z,836.75362
2023-05-09T04:40:16.408Z,849.88235
2023-05-09T04:45:17.956Z,877.33333
2023-05-09T04:50:19.543Z,863.40299
2023-05-09T04:55:20.920Z,849.88235
2023-05-09T05:00:22.375Z,863.40299
2023-05-09T05:05:25.248Z,877.33333
2023-05-09T05:10:27.057Z,877.33333
2023-05-09T05:15:28.435Z,891.69231
2023-05-09T05:20:29.807Z,953.83607
2023-05-09T05:25:31.252Z,937.54839
2023-05-09T05:30:34.383Z,937.54839
2023-05-09T05:35:36.096Z,937.54839
2023-05-09T05:40:37.530Z,970.66667
2023-05-09T05:45:38.997Z,988.0678
2023-05-09T05:50:40.417Z,1006.06897
2023-05-09T05:55:41.873Z,988.0678
2023-05-09T06:00:43.340Z,1024.70175
2023-05-09T06:05:44.758Z,1044
2023-05-09T06:10:46.204Z,1084.74074
2023-05-09T06:15:47.654Z,1024.70175
2023-05-09T06:20:49.040Z,1024.70175
2023-05-09T06:25:50.505Z,1064
2023-05-09T06:30:51.898Z,1064
2023-05-09T06:35:53.404Z,1106.26415
2023-05-09T06:40:54.868Z,1084.74074
2023-05-09T06:45:56.349Z,1084.74074
2023-05-09T06:50:57.763Z,1106.26415
2023-05-09T06:55:59.215Z,1084.74074
2023-05-09T07:01:00.623Z,1084.74074
2023-05-09T07:06:02.054Z,1106.26415
2023-05-09T07:11:03.438Z,1128.61538
2023-05-09T07:16:04.842Z,1176
2023-05-09T07:21:06.282Z,1151.84314
2023-05-09T07:26:07.670Z,1128.61538
2023-05-09T07:31:09.071Z,1128.61538
2023-05-09T07:36:10.457Z,1151.84314
2023-05-09T07:41:11.866Z,1128.61538
2023-05-09T07:46:13.319Z,1151.84314
2023-05-09T07:51:14.820Z,1176
2023-05-09T07:56:16.252Z,1201.14286
2023-05-09T08:01:17.601Z,1176
2023-05-09T08:06:18.992Z,1201.14286
2023-05-09T08:11:20.392Z,1201.14286
2023-05-09T08:16:21.884Z,1201.14286
2023-05-09T08:21:23.483Z,1227.33333
2023-05-09T08:26:24.940Z,1201.14286
2023-05-09T08:31:26.422Z,1176
2023-05-09T08:36:27.936Z,1176
2023-05-09T08:41:29.338Z,1201.14286
2023-05-09T08:46:30.886Z,1201.14286
2023-05-09T08:51:32.345Z,1201.14286
2023-05-09T08:56:33.750Z,1201.14286
2023-05-09T09:01:35.198Z,1201.14286
2023-05-09T09:06:36.673Z,1227.33333
2023-05-09T09:11:38.076Z,1283.13043
2023-05-09T09:16:39.479Z,1283.13043
2023-05-09T09:21:40.917Z,1254.6383
2023-05-09T09:26:42.424Z,1254.6383
2023-05-09T09:31:43.910Z,1254.6383
2023-05-09T09:36:45.323Z,1283.13043
2023-05-09T09:41:46.692Z,1312.88889
2023-05-09T09:46:48.109Z,1283.13043
2023-05-09T09:51:49.497Z,1312.88889
2023-05-09T09:56:50.886Z,1283.13043
2023-05-09T10:01:52.315Z,1254.6383
2023-05-09T10:06:53.745Z,1283.13043
2023-05-09T10:11:55.109Z,1283.13043
2023-05-09T10:16:56.766Z,1283.13043
2023-05-09T10:21:58.392Z,1312.88889
2023-05-09T10:26:59.829Z,1376.55814
2023-05-09T10:32:01.361Z,1344
2023-05-09T10:37:02.850Z,1312.88889
2023-05-09T10:42:04.289Z,1312.88889
2023-05-09T10:47:05.816Z,1312.88889
2023-05-09T10:52:07.270Z,1312.88889
2023-05-09T10:57:08.696Z,1312.88889
2023-05-09T11:02:10.121Z,1312.88889
2023-05-09T11:07:11.610Z,1283.13043
2023-05-09T11:12:13.023Z,1283.13043
2023-05-09T11:17:14.482Z,1254.6383
2023-05-09T11:22:15.937Z,1283.13043
2023-05-09T11:27:17.349Z,1283.13043
2023-05-09T11:32:18.770Z,1254.6383
2023-05-09T11:37:20.187Z,1227.33333
2023-05-09T11:42:21.586Z,1254.6383
2023-05-09T11:47:23.133Z,1254.6383
2023-05-09T11:52:24.628Z,1227.33333
2023-05-09T11:57:25.992Z,1201.14286
2023-05-09T12:02:27.466Z,1254.6383
2023-05-09T12:07:29.022Z,1283.13043
2023-05-09T12:12:30.369Z,1312.88889
2023-05-09T12:17:31.739Z,1312.88889
2023-05-09T12:22:33.108Z,1283.13043
2023-05-09T12:27:34.519Z,1283.13043
2023-05-09T12:32:35.917Z,1283.13043
2023-05-09T12:37:37.292Z,1227.33333
2023-05-09T12:42:38.708Z,1254.6383
2023-05-09T12:47:40.284Z,1227.33333
2023-05-09T12:52:58.545Z,1254.6383
2023-05-09T12:58:03.936Z,1176
2023-05-09T13:03:05.462Z,1084.74074
2023-05-09T13:08:06.954Z,1024.70175
2023-05-09T13:13:08.445Z,1044
2023-05-09T13:18:09.954Z,1128.61538
2023-05-09T13:23:11.353Z,1201.14286
2023-05-09T13:28:12.734Z,1176
2023-05-09T13:33:25.192Z,1176
2023-05-09T13:38:27.713Z,1106.26415
2023-05-09T13:43:29.110Z,1064
2023-05-09T13:48:30.542Z,1024.70175
2023-05-09T13:53:31.949Z,921.77778
2023-05-09T13:58:33.369Z,849.88235
2023-05-09T14:03:34.764Z,824
2023-05-09T14:08:36.155Z,799.55556
2023-05-09T14:13:37.582Z,799.55556
2023-05-09T14:18:38.985Z,836.75362
2023-05-09T14:23:40.373Z,811.60563
2023-05-09T14:28:41.786Z,863.40299
2023-05-09T14:33:43.327Z,877.33333
2023-05-09T14:38:44.724Z,877.33333
2023-05-09T14:43:46.125Z,891.69231
2023-05-09T14:48:47.740Z,891.69231
2023-05-09T14:53:49.161Z,824
2023-05-09T14:58:50.535Z,811.60563
2023-05-09T15:03:51.962Z,776.43243
2023-05-09T15:08:53.618Z,765.33333
2023-05-09T15:13:55.008Z,765.33333
2023-05-09T15:18:56.475Z,787.83562
2023-05-09T15:23:57.878Z,787.83562
2023-05-09T15:28:59.297Z,776.43243
2023-05-09T15:34:00.762Z,787.83562
2023-05-09T15:39:02.190Z,799.55556
2023-05-09T15:44:03.599Z,765.33333
2023-05-09T15:49:05.007Z,776.43243
2023-05-09T15:54:06.538Z,799.55556
2023-05-09T15:59:07.964Z,811.60563
2023-05-09T16:04:09.328Z,799.55556
2023-05-09T16:09:10.769Z,811.60563
2023-05-09T16:14:12.301Z,863.40299
2023-05-09T16:19:13.730Z,877.33333
2023-05-09T16:24:15.137Z,849.88235
2023-05-09T16:29:16.578Z,824
2023-05-09T16:34:18.000Z,849.88235
2023-05-09T16:39:19.483Z,787.83562
2023-05-09T16:44:20.891Z,811.60563
2023-05-09T16:49:22.301Z,863.40299
2023-05-09T16:54:23.723Z,824
2023-05-09T16:59:25.122Z,906.5
2023-05-09T17:04:26.580Z,906.5
2023-05-09T17:09:28.003Z,906.5
2023-05-09T17:14:29.399Z,953.83607
2023-05-09T17:19:30.812Z,953.83607
2023-05-09T17:24:32.331Z,1024.70175
2023-05-09T17:29:34.431Z,1151.84314
2023-05-09T17:34:35.827Z,1227.33333
2023-05-09T17:39:37.193Z,1151.84314
2023-05-09T17:44:38.601Z,1106.26415
2023-05-09T17:49:40.001Z,1151.84314
2023-05-09T17:54:41.564Z,1176
2023-05-09T17:59:43.046Z,1151.84314
2023-05-09T18:04:44.502Z,1064
2023-05-09T18:09:45.966Z,1064
2023-05-09T18:14:47.389Z,1084.74074
2023-05-09T18:19:48.818Z,1106.26415
2023-05-09T18:24:50.320Z,1151.84314
2023-05-09T18:29:51.684Z,1151.84314
2023-05-09T18:34:53.063Z,1006.06897
2023-05-09T18:39:54.519Z,1044
2023-05-09T18:44:55.873Z,1176
2023-05-09T18:49:57.326Z,1283.13043
2023-05-09T18:54:58.703Z,1151.84314
2023-05-09T19:00:00.181Z,1283.13043
2023-05-09T19:05:01.564Z,1106.26415
2023-05-09T19:10:03.038Z,1151.84314
2023-05-09T19:15:04.515Z,1084.74074
2023-05-09T19:20:05.973Z,1312.88889
2023-05-09T19:25:07.317Z,1151.84314
2023-05-09T19:30:08.866Z,1344
2023-05-09T19:35:10.405Z,1484
2023-05-09T19:40:11.848Z,1176
2023-05-09T19:45:13.240Z,1254.6383
2023-05-09T19:50:15.072Z,1254.6383
2023-05-09T19:55:16.883Z,1344
2023-05-09T20:00:18.604Z,1227.33333
2023-05-09T20:05:20.166Z,1376.55814
2023-05-09T20:10:21.600Z,1376.55814
2023-05-09T20:15:23.056Z,1446.43902
2023-05-09T20:20:25.241Z,1755.76471
2023-05-09T20:25:26.645Z,1869
2023-05-09T20:30:27.988Z,1755.76471
2023-05-09T20:35:29.359Z,1704
2023-05-09T20:40:30.676Z,1755.76471
2023-05-09T20:45:32.195Z,1997.33333
2023-05-09T20:50:33.605Z,1655.11111
2023-05-09T20:55:34.886Z,1869
2023-05-09T21:00:36.414Z,1869
2023-05-09T21:05:38.088Z,1254.6383
2023-05-09T21:10:39.465Z,1565.05263
2023-05-09T21:15:40.762Z,1446.43902
2023-05-09T21:20:42.124Z,1523.48718
2023-05-09T21:25:43.452Z,1446.43902
2023-05-09T21:30:44.873Z,1523.48718
2023-05-09T21:35:46.206Z,1565.05263
2023-05-09T21:40:47.614Z,1410.66667
2023-05-09T21:45:48.965Z,1344
2023-05-09T21:50:50.307Z,1283.13043
2023-05-09T21:55:51.653Z,1344
2023-05-09T22:00:53.044Z,1201.14286
2023-05-09T22:05:54.415Z,1227.33333
2023-05-09T22:10:55.723Z,1446.43902
2023-05-09T22:15:57.127Z,1446.43902
2023-05-09T22:20:58.680Z,1227.33333
2023-05-09T22:25:59.998Z,1201.14286
2023-05-09T22:31:01.390Z,1128.61538
2023-05-09T22:36:02.751Z,1084.74074
2023-05-09T22:41:04.144Z,1254.6383
2023-05-09T22:46:05.588Z,1376.55814
2023-05-09T22:51:07.000Z,1312.88889
2023-05-09T22:56:08.370Z,1344
2023-05-09T23:01:09.751Z,1312.88889
2023-05-09T23:06:11.211Z,1128.61538
2023-05-09T23:11:12.792Z,1410.66667
2023-05-09T23:16:14.277Z,1446.43902
2023-05-09T23:21:15.708Z,1869
2023-05-09T23:26:17.131Z,0
2023-05-09T23:31:18.617Z,1755.76471
2023-05-09T23:36:20.033Z,1523.48718
2023-05-09T23:41:21.535Z,1931.09677
2023-05-09T23:46:22.950Z,1565.05263
2023-05-09T23:51:24.367Z,1523.48718
2023-05-09T23:56:25.812Z,1446.43902
